createdAt,value
2019-06-08T00:01:26.329Z,99993.14
2019-06-08T00:03:55.019Z,99979.40
2019-06-08T00:06:23.695Z,99960.89
2019-06-08T00:08:52.353Z,100038.73
2019-06-08T00:11:21.239Z,100024.26
2019-06-08T00:13:49.927Z,100031.59
2019-06-08T00:16:19.360Z,100030.18
2019-06-08T00:18:48.015Z,100038.16
2019-06-08T00:21:17.597Z,100051.19
2019-06-08T00:23:46.358Z,100035.16
2019-06-08T00:26:16.002Z,100023.86
2019-06-08T00:28:44.784Z,100053.78
2019-06-08T00:31:13.443Z,100070.09
2019-06-08T00:33:42.102Z,100070.48
2019-06-08T00:36:10.797Z,100078.20
2019-06-08T00:38:39.452Z,100080.58
2019-06-08T00:41:08.122Z,100087.91
2019-06-08T00:43:36.796Z,100090.04
2019-06-08T00:46:05.493Z,100091.25
2019-06-08T00:48:34.147Z,100102.05
2019-06-08T00:51:02.816Z,100122.30
2019-06-08T00:53:31.505Z,100104.63
2019-06-08T00:56:00.502Z,100105.64
2019-06-08T00:58:30.469Z,100104.36
2019-06-08T01:00:59.531Z,100099.01
2019-06-08T01:03:28.268Z,100094.52
2019-06-08T01:05:57.002Z,100089.55
2019-06-08T01:08:25.679Z,100095.80
2019-06-08T01:10:54.359Z,100077.20
2019-06-08T01:13:23.322Z,100077.37
2019-06-08T01:18:24.566Z,100093.80
2019-06-08T01:20:53.673Z,100103.89
2019-06-08T01:23:23.430Z,100105.23
2019-06-08T01:25:52.174Z,100107.56
2019-06-08T01:28:22.124Z,100114.75
2019-06-08T01:30:50.966Z,100107.86
2019-06-08T01:33:20.401Z,100117.42
2019-06-08T01:35:49.199Z,100112.83
2019-06-08T01:38:17.854Z,100113.57
2019-06-08T01:40:46.512Z,100106.44
2019-06-08T01:43:15.467Z,100097.59
2019-06-08T01:45:44.189Z,100099.52
2019-06-08T01:48:19.880Z,100112.48
2019-06-08T01:50:43.224Z,100112.70
2019-06-08T01:53:11.922Z,100112.91
2019-06-08T01:55:40.648Z,100122.64
2019-06-08T01:58:09.305Z,100112.27
2019-06-08T02:00:41.442Z,100111.52
2019-06-08T02:03:08.466Z,100114.56
2019-06-08T02:05:37.257Z,100109.98
2019-06-08T02:08:06.238Z,100102.52
2019-06-08T02:10:35.051Z,100104.23
2019-06-08T02:13:03.671Z,100108.77
2019-06-08T02:15:33.773Z,100113.45
2019-06-08T02:18:02.467Z,100104.28
2019-06-08T02:20:31.225Z,100101.97
2019-06-08T02:22:59.906Z,100115.48
2019-06-08T02:25:29.480Z,100119.73
2019-06-08T02:27:58.282Z,100110.65
2019-06-08T02:30:31.217Z,100106.55
2019-06-08T02:33:00.086Z,100103.84
2019-06-08T02:35:30.693Z,100108.94
2019-06-08T02:37:59.520Z,100111.25
2019-06-08T02:40:30.248Z,100109.81
2019-06-08T02:42:58.733Z,100114.65
2019-06-08T02:45:29.439Z,100117.62
2019-06-08T02:47:57.869Z,100128.44
2019-06-08T02:50:52.666Z,100120.80
2019-06-08T02:53:21.573Z,100122.14
2019-06-08T02:55:51.040Z,100131.84
2019-06-08T02:58:20.113Z,100122.37
2019-06-08T03:00:49.533Z,100127.03
2019-06-08T03:03:18.560Z,100131.03
2019-06-08T03:05:50.135Z,100138.50
2019-06-08T03:08:20.230Z,100149.16
2019-06-08T03:10:51.493Z,100139.28
2019-06-08T03:13:25.080Z,100139.46
2019-06-08T03:15:54.088Z,100126.36
2019-06-08T03:18:22.756Z,100140.83
2019-06-08T03:20:51.434Z,100153.87
2019-06-08T03:23:20.122Z,100156.40
2019-06-08T03:25:52.868Z,100142.66
2019-06-08T03:28:19.192Z,100151.45
2019-06-08T03:30:54.118Z,100167.66
2019-06-08T03:33:18.267Z,100176.48
2019-06-08T03:35:56.295Z,100186.08
2019-06-08T03:38:17.343Z,100189.11
2019-06-08T03:40:46.005Z,100167.52
2019-06-08T03:43:14.673Z,100167.21
2019-06-08T03:45:45.162Z,100157.41
2019-06-08T03:48:13.752Z,100158.44
2019-06-08T03:50:44.453Z,100171.88
2019-06-08T03:53:12.905Z,100175.09
2019-06-08T03:55:43.063Z,100186.45
2019-06-08T03:58:12.516Z,100191.71
2019-06-08T04:00:42.380Z,100207.03
2019-06-08T04:03:11.229Z,100191.64
2019-06-08T04:05:42.221Z,100208.97
2019-06-08T04:08:10.573Z,100197.23
2019-06-08T04:10:39.875Z,100219.14
2019-06-08T04:13:11.619Z,100205.34
2019-06-08T04:15:40.306Z,100222.83
2019-06-08T04:18:09.974Z,100209.05
2019-06-08T04:20:40.339Z,100195.95
2019-06-08T04:23:09.124Z,100182.46
2019-06-08T04:25:38.377Z,100183.80
2019-06-08T04:28:07.585Z,100175.78
2019-06-08T04:30:36.244Z,100179.58
2019-06-08T04:33:04.930Z,100193.52
2019-06-08T04:35:33.610Z,100210.09
2019-06-08T04:38:02.276Z,100216.98
2019-06-08T04:40:30.967Z,100225.20
2019-06-08T04:42:59.622Z,100220.48
2019-06-08T04:45:28.336Z,100228.62
2019-06-08T04:47:56.984Z,100216.93
2019-06-08T04:50:25.645Z,100224.59
2019-06-08T04:52:54.406Z,100226.29
2019-06-08T04:55:23.082Z,100221.24
2019-06-08T04:57:51.770Z,100221.95
2019-06-08T05:00:20.711Z,100224.80
2019-06-08T05:02:51.190Z,100232.63
2019-06-08T05:05:19.954Z,100236.81
2019-06-08T05:07:50.316Z,100239.44
2019-06-08T05:10:19.076Z,100242.84
2019-06-08T05:12:49.868Z,100246.20
2019-06-08T05:15:18.741Z,100265.88
2019-06-08T05:17:47.612Z,100258.94
2019-06-08T05:20:17.001Z,100248.84
2019-06-08T05:22:45.759Z,100251.77
2019-06-08T05:25:14.777Z,100252.75
2019-06-08T05:27:43.458Z,100244.33
2019-06-08T05:30:12.307Z,100248.34
2019-06-08T05:32:41.389Z,100252.04
2019-06-08T05:35:10.916Z,100258.09
2019-06-08T05:37:39.584Z,100255.19
2019-06-08T05:40:08.761Z,100252.48
2019-06-08T05:42:37.429Z,100256.33
2019-06-08T05:45:06.760Z,100267.42
2019-06-08T05:47:35.610Z,100261.55
2019-06-08T05:50:04.928Z,100271.69
2019-06-08T05:52:33.608Z,100262.87
2019-06-08T05:55:02.354Z,100263.20
2019-06-08T05:57:31.049Z,100259.49
2019-06-08T05:59:59.705Z,100269.16
2019-06-08T06:02:28.378Z,100260.17
2019-06-08T06:04:57.236Z,100273.72
2019-06-08T06:07:25.916Z,100266.53
2019-06-08T06:09:54.600Z,100279.25
2019-06-08T06:12:23.261Z,100285.27
2019-06-08T06:14:51.916Z,100276.55
2019-06-08T06:17:20.611Z,100276.73
2019-06-08T06:19:49.303Z,100285.56
2019-06-08T06:22:17.943Z,100285.02
2019-06-08T06:24:47.621Z,100283.18
2019-06-08T06:27:16.361Z,100290.85
2019-06-08T06:29:45.451Z,100294.92
2019-06-08T06:32:14.456Z,100295.28
2019-06-08T06:34:43.913Z,100293.93
2019-06-08T06:37:12.633Z,100306.09
2019-06-08T06:39:41.926Z,100298.56
2019-06-08T06:42:10.693Z,100302.88
2019-06-08T06:44:39.351Z,100306.36
2019-06-08T06:47:08.009Z,100310.38
2019-06-08T06:49:36.724Z,100311.22
2019-06-08T06:52:05.461Z,100320.36
2019-06-08T06:54:34.135Z,100317.27
2019-06-08T06:57:02.808Z,100321.58
2019-06-08T06:59:31.478Z,100328.53
2019-06-08T07:02:00.518Z,100343.19
2019-06-08T07:04:29.492Z,100338.05
2019-06-08T07:06:58.189Z,100348.20
2019-06-08T07:09:26.844Z,100363.56
2019-06-08T07:11:56.626Z,100361.94
2019-06-08T07:14:25.518Z,100372.72
2019-06-08T07:16:54.197Z,100374.94
2019-06-08T07:19:22.862Z,100371.99
2019-06-08T07:21:53.067Z,100362.77
2019-06-08T07:24:21.939Z,100369.28
2019-06-08T07:26:50.634Z,100364.98
2019-06-08T07:29:19.536Z,100391.27
2019-06-08T07:31:48.666Z,100381.92
2019-06-08T07:34:18.553Z,100371.09
2019-06-08T07:36:48.457Z,100376.98
2019-06-08T07:39:17.777Z,100381.62
2019-06-08T07:41:47.410Z,100394.04
2019-06-08T07:44:16.928Z,100346.95
2019-06-08T07:46:46.937Z,100381.67
2019-06-08T07:49:15.735Z,100389.39
2019-06-08T07:51:57.603Z,100387.58
2019-06-08T07:54:14.828Z,100398.08
2019-06-08T07:56:43.486Z,100392.42
2019-06-08T07:59:12.241Z,100399.43
2019-06-08T08:01:40.951Z,100393.50
2019-06-08T08:04:09.603Z,100398.86
2019-06-08T08:06:38.290Z,100405.03
2019-06-08T08:09:07.989Z,100402.39
2019-06-08T08:11:36.688Z,100401.05
2019-06-08T08:14:05.699Z,100405.64
2019-06-08T08:16:34.356Z,100406.92
2019-06-08T08:19:03.014Z,100420.91
2019-06-08T08:21:31.702Z,100404.91
2019-06-08T08:24:01.630Z,100423.16
2019-06-08T08:26:34.017Z,100421.62
2019-06-08T08:29:03.104Z,100420.64
2019-06-08T08:31:31.292Z,100434.23
2019-06-08T08:34:05.628Z,100424.16
2019-06-08T08:36:33.294Z,100427.61
2019-06-08T08:39:02.478Z,100418.89
2019-06-08T08:41:31.333Z,100437.63
2019-06-08T08:44:02.819Z,100428.44
2019-06-08T08:46:30.415Z,100437.91
2019-06-08T08:49:07.338Z,100429.89
2019-06-08T08:51:29.547Z,100444.70
2019-06-08T08:54:03.193Z,100452.91
2019-06-08T08:56:28.574Z,100431.84
2019-06-08T08:59:00.947Z,100460.73
2019-06-08T09:01:28.811Z,100453.80
2019-06-08T09:04:02.938Z,100464.52
2019-06-08T09:06:28.305Z,100473.16
2019-06-08T09:09:00.878Z,100477.73
2019-06-08T09:11:28.894Z,100483.11
2019-06-08T09:14:01.406Z,100479.66
2019-06-08T09:16:28.741Z,100492.78
2019-06-08T09:19:01.148Z,100486.80
2019-06-08T09:21:28.237Z,100492.54
2019-06-08T09:24:00.782Z,100495.03
2019-06-08T09:26:28.736Z,100489.45
2019-06-08T09:28:58.398Z,100499.89
2019-06-08T09:31:30.806Z,100510.73
2019-06-08T09:34:08.562Z,100513.98
2019-06-08T09:36:28.907Z,100535.38
2019-06-08T09:39:00.997Z,100528.36
2019-06-08T09:41:31.168Z,100527.88
2019-06-08T09:44:02.206Z,100537.56
2019-06-08T09:46:28.966Z,100534.58
2019-06-08T09:49:03.652Z,100529.22
2019-06-08T09:51:28.633Z,100535.07
2019-06-08T09:54:02.080Z,100529.44
2019-06-08T09:56:28.409Z,100543.58
2019-06-08T09:59:01.258Z,100543.52
2019-06-08T10:01:28.598Z,100541.30
2019-06-08T10:04:00.626Z,100564.89
2019-06-08T10:06:28.092Z,100537.11
2019-06-08T10:08:56.733Z,100553.52
2019-06-08T10:11:27.908Z,100550.88
2019-06-08T10:13:59.386Z,100554.73
2019-06-08T10:16:27.978Z,100567.16
2019-06-08T10:18:57.707Z,100565.84
2019-06-08T10:21:28.417Z,100558.81
2019-06-08T10:23:59.753Z,100576.08
2019-06-08T10:26:28.113Z,100572.53
2019-06-08T10:29:00.313Z,100578.50
2019-06-08T10:31:36.472Z,100585.78
2019-06-08T10:34:00.579Z,100577.13
2019-06-08T10:36:28.542Z,100583.59
2019-06-08T10:39:01.842Z,100588.70
2019-06-08T10:41:27.994Z,100584.93
2019-06-08T10:43:57.179Z,100596.52
2019-06-08T10:46:25.941Z,100594.56
2019-06-08T10:48:54.682Z,100599.22
2019-06-08T10:51:23.352Z,100601.73
2019-06-08T10:53:53.529Z,100594.16
2019-06-08T10:56:22.631Z,100592.77
2019-06-08T10:58:51.417Z,100601.70
2019-06-08T11:01:20.069Z,100606.06
2019-06-08T11:03:49.079Z,100615.67
2019-06-08T11:06:18.758Z,100609.72
2019-06-08T11:08:47.770Z,100613.52
2019-06-08T11:11:19.489Z,100613.52
2019-06-08T11:13:50.188Z,100620.41
2019-06-08T11:16:18.050Z,100625.16
2019-06-08T11:18:50.845Z,100626.09
2019-06-08T11:21:18.867Z,100613.94
2019-06-08T11:24:04.533Z,100623.52
2019-06-08T11:26:23.905Z,100626.76
2019-06-08T11:28:51.219Z,100615.94
2019-06-08T11:31:19.830Z,100620.90
2019-06-08T11:33:49.119Z,100626.73
2019-06-08T11:36:18.893Z,100631.56
2019-06-08T11:38:48.056Z,100629.70
2019-06-08T11:41:18.953Z,100636.16
2019-06-08T11:43:47.144Z,100639.67
2019-06-08T11:46:19.026Z,100636.17
2019-06-08T11:48:48.361Z,100643.95
2019-06-08T11:51:16.652Z,100646.20
2019-06-08T11:53:48.231Z,100651.93
2019-06-08T11:56:18.272Z,100651.16
2019-06-08T11:58:48.604Z,100649.41
2019-06-08T12:01:18.552Z,100674.78
2019-06-08T12:03:48.392Z,100666.37
2019-06-08T12:06:18.522Z,100654.77
2019-06-08T12:08:47.482Z,100677.16
2019-06-08T12:11:19.748Z,100679.21
2019-06-08T12:13:47.345Z,100656.12
2019-06-08T12:16:21.623Z,100661.75
2019-06-08T12:18:49.210Z,100648.73
2019-06-08T12:21:18.600Z,100653.86
2019-06-08T12:23:47.446Z,100647.70
2019-06-08T12:26:16.168Z,100663.71
2019-06-08T12:28:44.836Z,100660.66
2019-06-08T12:31:17.688Z,100672.15
2019-06-08T12:33:43.992Z,100678.91
2019-06-08T12:36:15.591Z,100684.22
2019-06-08T12:38:43.144Z,100678.31
2019-06-08T12:41:12.727Z,100682.46
2019-06-08T12:43:42.317Z,100691.39
2019-06-08T12:46:12.900Z,100674.49
2019-06-08T12:48:41.352Z,100671.63
2019-06-08T12:51:12.087Z,100666.14
2019-06-08T12:53:40.532Z,100664.39
2019-06-08T12:56:11.734Z,100669.23
2019-06-08T12:58:39.596Z,100681.89
2019-06-08T13:01:09.802Z,100677.63
2019-06-08T13:03:38.677Z,100684.23
2019-06-08T13:06:09.179Z,100684.23
2019-06-08T13:08:37.850Z,100685.17
2019-06-08T13:11:08.145Z,100682.66
2019-06-08T13:13:37.766Z,100686.53
2019-06-08T13:16:06.597Z,100696.19
2019-06-08T13:18:35.265Z,100684.87
2019-06-08T13:21:16.805Z,100686.56
2019-06-08T13:23:34.411Z,100679.25
2019-06-08T13:26:03.078Z,100685.80
2019-06-08T13:28:31.753Z,100690.78
2019-06-08T13:31:00.435Z,100693.14
2019-06-08T13:33:29.092Z,100702.96
2019-06-08T13:35:58.111Z,100711.25
2019-06-08T13:38:27.796Z,100706.76
2019-06-08T13:40:58.802Z,100706.76
2019-06-08T13:43:27.053Z,100698.50
2019-06-08T13:45:58.118Z,100701.82
2019-06-08T13:48:26.184Z,100688.42
2019-06-08T13:50:54.845Z,100686.83
2019-06-08T13:53:28.749Z,100664.98
2019-06-08T13:55:56.584Z,100675.65
2019-06-08T13:58:29.769Z,100665.22
2019-06-08T14:00:57.413Z,100673.88
2019-06-08T14:03:27.534Z,100679.34
2019-06-08T14:05:55.567Z,100675.16
2019-06-08T14:08:25.595Z,100681.66
2019-06-08T14:11:00.500Z,100669.85
2019-06-08T14:13:27.772Z,100670.56
2019-06-08T14:15:58.437Z,100679.34
2019-06-08T14:18:33.022Z,100669.42
2019-06-08T14:20:58.689Z,100671.36
2019-06-08T14:23:27.185Z,100681.64
2019-06-08T14:25:57.819Z,100683.70
2019-06-08T14:28:28.577Z,100679.94
2019-06-08T14:30:59.193Z,100686.38
2019-06-08T14:33:31.744Z,100697.70
2019-06-08T14:35:59.121Z,100689.63
2019-06-08T14:38:37.665Z,100685.22
2019-06-08T14:40:59.054Z,100693.36
2019-06-08T14:43:30.022Z,100686.84
2019-06-08T14:45:58.313Z,100691.36
2019-06-08T14:48:33.129Z,100693.91
2019-06-08T14:50:58.640Z,100708.80
2019-06-08T14:53:28.893Z,100714.03
2019-06-08T14:56:05.704Z,100704.81
2019-06-08T14:58:33.566Z,100708.09
2019-06-08T15:00:58.400Z,100693.65
2019-06-08T15:03:27.299Z,100689.98
2019-06-08T15:05:57.750Z,100675.27
2019-06-08T15:08:28.607Z,100690.98
2019-06-08T15:10:58.178Z,100687.83
2019-06-08T15:13:28.634Z,100704.33
2019-06-08T15:16:00.447Z,100706.22
2019-06-08T15:18:30.033Z,100720.11
2019-06-08T15:20:58.543Z,100722.52
2019-06-08T15:23:29.493Z,100722.22
2019-06-08T15:25:58.250Z,100699.34
2019-06-08T15:28:29.325Z,100701.63
2019-06-08T15:30:59.787Z,100702.41
2019-06-08T15:33:33.027Z,100706.54
2019-06-08T15:35:59.183Z,100698.44
2019-06-08T15:38:30.119Z,100701.87
2019-06-08T15:40:58.229Z,100709.52
2019-06-08T15:43:31.356Z,100705.08
2019-06-08T15:45:59.160Z,100714.36
2019-06-08T15:48:29.372Z,100704.64
2019-06-08T15:50:58.547Z,100704.37
2019-06-08T15:53:29.493Z,100707.30
2019-06-08T15:55:58.362Z,100696.41
2019-06-08T15:58:29.509Z,100711.04
2019-06-08T16:00:57.492Z,100714.67
2019-06-08T16:03:27.326Z,100714.66
2019-06-08T16:05:56.243Z,100704.76
2019-06-08T16:08:25.923Z,100701.25
2019-06-08T16:10:54.863Z,100704.27
2019-06-08T16:13:24.685Z,100707.73
2019-06-08T16:15:53.498Z,100698.91
2019-06-08T16:18:22.150Z,100702.16
2019-06-08T16:20:50.841Z,100707.17
2019-06-08T16:23:19.503Z,100715.92
2019-06-08T16:25:48.215Z,100716.23
2019-06-08T16:28:16.897Z,100732.76
2019-06-08T16:30:45.956Z,100729.02
2019-06-08T16:33:14.712Z,100743.29
2019-06-08T16:35:43.441Z,100731.14
2019-06-08T16:38:12.142Z,100744.61
2019-06-08T16:40:40.809Z,100742.97
2019-06-08T16:43:09.469Z,100731.46
2019-06-08T16:45:39.446Z,100742.91
2019-06-08T16:48:08.432Z,100744.23
2019-06-08T16:50:38.477Z,100739.14
2019-06-08T16:53:07.305Z,100747.00
2019-06-08T16:55:36.216Z,100758.83
2019-06-08T16:58:04.927Z,100730.03
2019-06-08T17:00:37.173Z,100746.09
2019-06-08T17:03:04.381Z,100756.81
2019-06-08T17:05:33.231Z,100742.87
2019-06-08T17:08:01.996Z,100742.60
2019-06-08T17:10:30.654Z,100735.77
2019-06-08T17:12:59.343Z,100739.52
2019-06-08T17:15:27.993Z,100748.02
2019-06-08T17:17:56.675Z,100763.00
2019-06-08T17:20:25.340Z,100754.02
2019-06-08T17:22:54.026Z,100758.64
2019-06-08T17:25:22.839Z,100770.23
2019-06-08T17:27:51.551Z,100786.43
2019-06-08T17:30:20.385Z,100778.75
2019-06-08T17:32:49.056Z,100778.56
2019-06-08T17:35:17.853Z,100787.98
2019-06-08T17:37:46.510Z,100800.34
2019-06-08T17:40:15.451Z,100815.89
2019-06-08T17:42:44.133Z,100827.94
2019-06-08T17:45:13.552Z,100865.66
2019-06-08T17:47:42.828Z,100901.02
2019-06-08T17:50:12.157Z,100904.63
2019-06-08T17:52:41.082Z,100895.80
2019-06-08T17:55:10.159Z,100888.82
2019-06-08T17:57:49.489Z,100896.33
2019-06-08T18:00:11.288Z,100879.53
2019-06-08T18:02:43.312Z,100884.33
2019-06-08T18:05:11.549Z,100883.23
2019-06-08T18:07:43.229Z,100873.33
2019-06-08T18:10:10.697Z,100877.11
2019-06-08T18:12:43.026Z,100871.35
2019-06-08T18:15:11.669Z,100874.84
2019-06-08T18:17:42.197Z,100872.19
2019-06-08T18:20:13.460Z,100866.36
2019-06-08T18:22:44.360Z,100869.66
2019-06-08T18:25:13.947Z,100862.48
2019-06-08T18:27:58.424Z,100866.36
2019-06-08T18:30:15.033Z,100859.97
2019-06-08T18:32:46.317Z,100862.04
2019-06-08T18:35:15.201Z,100860.87
2019-06-08T18:37:44.444Z,100868.43
2019-06-08T18:40:17.916Z,100870.44
2019-06-08T18:42:48.803Z,100870.31
2019-06-08T18:45:18.626Z,100871.29
2019-06-08T18:47:48.470Z,100867.46
2019-06-08T18:50:17.844Z,100871.23
2019-06-08T18:52:49.462Z,100874.34
2019-06-08T18:55:18.270Z,100877.31
2019-06-08T18:57:48.981Z,100883.88
2019-06-08T19:00:18.794Z,100892.30
2019-06-08T19:02:49.976Z,100888.20
2019-06-08T19:05:21.119Z,100886.34
2019-06-08T19:07:51.636Z,100884.78
2019-06-08T19:10:30.273Z,100890.80
2019-06-08T19:12:58.933Z,100898.68
2019-06-08T19:15:33.577Z,100894.50
2019-06-08T19:18:02.389Z,100895.80
2019-06-08T19:20:31.064Z,100899.83
2019-06-08T19:22:59.829Z,100905.81
2019-06-08T19:25:28.768Z,100906.43
2019-06-08T19:27:58.052Z,100917.30
2019-06-08T19:30:28.132Z,100915.58
2019-06-08T19:32:57.851Z,100924.91
2019-06-08T19:35:27.475Z,100936.41
2019-06-08T19:37:58.334Z,100934.28
2019-06-08T19:40:27.236Z,100942.17
2019-06-08T19:43:00.932Z,100932.41
2019-06-08T19:45:27.659Z,100928.75
2019-06-08T19:47:57.768Z,100928.96
2019-06-08T19:50:28.710Z,100938.80
2019-06-08T19:52:58.057Z,100939.46
2019-06-08T19:55:26.955Z,100942.34
2019-06-08T19:57:57.568Z,100942.33
2019-06-08T20:00:27.861Z,100953.34
2019-06-08T20:02:58.248Z,100968.36
2019-06-08T20:05:28.442Z,100967.26
2019-06-08T20:07:57.698Z,100962.31
2019-06-08T20:10:27.933Z,100976.88
2019-06-08T20:12:57.769Z,100974.27
2019-06-08T20:15:26.682Z,100980.81
2019-06-08T20:17:57.467Z,100983.77
2019-06-08T20:20:27.947Z,100981.55
2019-06-08T20:22:58.375Z,100987.23
2019-06-08T20:25:27.847Z,100989.09
2019-06-08T20:27:58.715Z,100986.91
2019-06-08T20:30:28.196Z,100996.19
2019-06-08T20:32:57.620Z,100988.42
2019-06-08T20:35:28.066Z,100994.41
2019-06-08T20:37:57.835Z,100992.61
2019-06-08T20:40:27.909Z,100990.66
2019-06-08T20:42:57.789Z,100998.31
2019-06-08T20:45:28.061Z,101003.91
2019-06-08T20:47:58.558Z,101009.09
2019-06-08T20:50:27.363Z,101006.12
2019-06-08T20:52:57.676Z,101006.75
2019-06-08T20:55:28.279Z,101004.08
2019-06-08T20:57:57.614Z,101012.96
2019-06-08T21:00:26.450Z,101014.61
2019-06-08T21:03:01.779Z,101017.38
2019-06-08T21:05:27.775Z,101021.74
2019-06-08T21:07:58.879Z,101022.16
2019-06-08T21:10:28.176Z,101014.71
2019-06-08T21:12:58.732Z,101015.48
2019-06-08T21:15:27.568Z,101019.67
2019-06-08T21:17:56.365Z,101029.69
2019-06-08T21:20:25.022Z,101025.20
2019-06-08T21:22:55.025Z,101024.18
2019-06-08T21:25:24.081Z,101021.20
2019-06-08T21:27:54.075Z,101022.84
2019-06-08T21:30:24.678Z,101024.02
2019-06-08T21:32:55.831Z,101023.35
2019-06-08T21:35:23.616Z,101022.84
2019-06-08T21:37:53.420Z,101028.66
2019-06-08T21:40:22.712Z,101027.47
2019-06-08T21:42:52.246Z,101030.98
2019-06-08T21:45:21.759Z,101027.17
2019-06-08T21:47:51.744Z,101029.51
2019-06-08T21:50:20.847Z,101030.14
2019-06-08T21:52:51.471Z,101032.28
2019-06-08T21:55:19.939Z,101036.95
2019-06-08T21:57:51.993Z,101035.77
2019-06-08T22:00:38.770Z,101043.77
2019-06-08T22:02:51.910Z,101043.44
2019-06-08T22:05:20.581Z,101040.56
2019-06-08T22:07:50.084Z,101042.52
2019-06-08T22:10:18.888Z,101043.50
2019-06-08T22:12:48.318Z,101039.49
2019-06-08T22:15:18.318Z,101047.47
2019-06-08T22:17:47.589Z,101041.73
2019-06-08T22:20:18.628Z,101050.14
2019-06-08T22:22:47.423Z,101053.24
2019-06-08T22:25:17.498Z,101049.05
2019-06-08T22:27:46.486Z,101061.58
2019-06-08T22:30:34.747Z,101062.74
2019-06-08T22:32:47.457Z,101065.53
2019-06-08T22:35:16.349Z,101061.25
2019-06-08T22:37:45.036Z,101063.66
2019-06-08T22:40:13.836Z,101074.95
2019-06-08T22:42:42.491Z,101077.93
2019-06-08T22:45:11.329Z,101077.14
2019-06-08T22:47:40.109Z,101079.19
2019-06-08T22:50:09.689Z,101077.27
2019-06-08T22:52:38.651Z,101087.83
2019-06-08T22:55:10.467Z,101092.88
2019-06-08T22:57:37.978Z,101079.36
2019-06-08T23:00:14.555Z,101080.36
2019-06-08T23:02:38.544Z,101075.03
2019-06-08T23:05:09.081Z,101074.16
2019-06-08T23:07:38.118Z,101074.45
2019-06-08T23:10:09.010Z,101077.13
2019-06-08T23:12:38.236Z,101075.61
2019-06-08T23:15:07.878Z,101075.49
2019-06-08T23:17:38.668Z,101068.83
2019-06-08T23:20:08.634Z,101072.38
2019-06-08T23:22:38.465Z,101069.78
2019-06-08T23:25:09.310Z,101071.39
2019-06-08T23:27:38.370Z,101068.02
2019-06-08T23:30:10.057Z,101073.41
2019-06-08T23:32:39.115Z,101073.11
2019-06-08T23:35:09.562Z,101072.78
2019-06-08T23:37:38.630Z,101068.76
2019-06-08T23:40:08.763Z,101070.83
2019-06-08T23:42:38.408Z,101063.98
2019-06-08T23:45:10.355Z,101067.21
2019-06-08T23:47:38.731Z,101074.41
2019-06-08T23:50:11.373Z,101072.87
2019-06-08T23:52:39.570Z,101070.40
2019-06-08T23:55:11.468Z,101075.45
2019-06-08T23:57:38.790Z,101078.18
